Time;durP1;ratioP1;P1;durP2;ratioP2;P2;SDS_P1;SDS_P2;PMS_P1;PMS_P2;Temp;Humidity;BMP_temperature;BMP_pressure;BME280_temperature;BME280_humidity;BME280_pressure;Samples;Min_cycle;Max_cycle;Signal;HPM_P1;HPM_P2
2023/04/23 00:01:42;;;;;;;19.95;16.05;;;17.90;73.70;;;;;;4183367;28;20060;-62
2023/04/23 00:04:25;;;;;;;17.00;15.02;;;17.80;73.60;;;;;;4188341;28;20055;-61
2023/04/23 00:07:07;;;;;;;19.83;16.67;;;17.80;73.80;;;;;;4195077;28;20051;-61
2023/04/23 00:09:52;;;;;;;19.67;15.85;;;17.80;73.70;;;;;;4194922;28;20190;-62
2023/04/23 00:12:33;;;;;;;22.17;16.70;;;17.80;73.70;;;;;;4194859;28;20044;-62
2023/04/23 00:15:15;;;;;;;19.42;16.77;;;17.80;73.80;;;;;;4193286;28;20094;-61
2023/04/23 00:17:55;;;;;;;;;;;17.80;73.80;;;;;;4184901;28;20048;-61
2023/04/23 00:20:36;;;;;;;20.27;16.67;;;17.80;75.00;;;;;;4178347;28;19947;-62
2023/04/23 00:23:17;;;;;;;20.23;17.55;;;17.80;74.80;;;;;;4180428;28;20040;-62
2023/04/23 00:26:00;;;;;;;23.23;19.02;;;17.80;74.50;;;;;;4194685;28;20630;-62
2023/04/23 00:28:41;;;;;;;24.02;19.42;;;17.70;74.20;;;;;;4194470;28;20055;-62
2023/04/23 00:31:23;;;;;;;22.65;18.75;;;17.70;74.20;;;;;;4194717;28;20055;-62
2023/04/23 00:34:04;;;;;;;27.17;20.48;;;17.70;74.20;;;;;;4187215;28;20093;-62
2023/04/23 00:36:44;;;;;;;25.67;21.13;;;17.70;74.20;;;;;;4191870;28;20699;-62
2023/04/23 00:39:25;;;;;;;27.38;21.38;;;17.70;74.30;;;;;;4194757;28;20593;-62
2023/04/23 00:42:11;;;;;;;25.10;21.25;;;17.70;74.40;;;;;;4193171;28;20067;-62
2023/04/23 00:44:52;;;;;;;27.02;20.75;;;17.70;74.50;;;;;;4194515;28;20201;-62
2023/04/23 00:47:34;;;;;;;28.70;21.02;;;17.70;74.60;;;;;;4194353;28;20098;-62
2023/04/23 00:50:15;;;;;;;29.35;21.35;;;17.70;74.50;;;;;;4190583;28;20389;-61
2023/04/23 00:52:56;;;;;;;27.05;20.30;;;17.60;74.50;;;;;;4176821;28;20052;-60
2023/04/23 00:55:37;;;;;;;28.70;22.13;;;17.60;74.50;;;;;;4189413;28;20051;-61
2023/04/23 00:58:20;;;;;;;26.67;21.73;;;17.60;74.60;;;;;;4194052;28;20177;-60
2023/04/23 01:01:03;;;;;;;27.20;19.88;;;17.60;74.50;;;;;;4177640;28;20122;-60
2023/04/23 01:03:44;;;;;;;25.92;20.30;;;17.60;74.60;;;;;;4177351;28;20051;-60
2023/04/23 01:06:27;;;;;;;25.42;21.05;;;17.60;74.50;;;;;;4177600;28;20059;-60
2023/04/23 01:09:09;;;;;;;25.08;19.95;;;17.60;74.60;;;;;;4177671;28;20052;-60
2023/04/23 01:11:51;;;;;;;26.13;20.05;;;17.60;74.50;;;;;;4177256;28;20130;-60
2023/04/23 01:14:34;;;;;;;25.13;19.52;;;17.60;74.40;;;;;;4192531;28;20067;-60
2023/04/23 01:17:15;;;;;;;26.75;20.30;;;17.60;74.50;;;;;;4177480;28;20501;-60
2023/04/23 01:19:56;;;;;;;24.98;19.75;;;17.60;74.30;;;;;;4177698;28;20048;-60
2023/04/23 01:22:39;;;;;;;23.95;19.08;;;17.60;74.50;;;;;;4176130;28;20070;-61
2023/04/23 01:25:20;;;;;;;23.67;19.25;;;17.50;74.50;;;;;;4177224;28;20523;-61
2023/04/23 01:28:01;;;;;;;25.85;19.80;;;17.60;74.60;;;;;;4190243;28;20056;-61
2023/04/23 01:30:43;;;;;;;26.08;20.20;;;17.50;74.60;;;;;;4193938;28;20126;-60
2023/04/23 01:33:25;;;;;;;26.70;19.92;;;17.50;75.50;;;;;;4192764;28;20060;-60
2023/04/23 01:36:07;;;;;;;26.05;19.90;;;17.50;74.80;;;;;;4191797;28;20051;-60
2023/04/23 01:38:50;;;;;;;25.77;20.13;;;17.50;74.60;;;;;;4176831;28;20055;-59
2023/04/23 01:41:31;;;;;;;25.58;19.25;;;17.50;74.50;;;;;;4176803;28;20048;-60
2023/04/23 01:44:12;;;;;;;;;;;17.50;74.50;;;;;;4177115;28;20052;-60
2023/04/23 01:46:53;;;;;;;24.00;19.52;;;17.50;74.70;;;;;;4176584;28;20418;-60
2023/04/23 01:49:34;;;;;;;25.45;20.25;;;17.50;75.40;;;;;;4177186;28;20052;-60
2023/04/23 01:52:15;;;;;;;26.98;19.88;;;17.50;75.10;;;;;;4189128;28;20056;-60
2023/04/23 01:54:57;;;;;;;24.58;19.67;;;17.40;75.10;;;;;;4193430;28;20552;-60
2023/04/23 01:57:38;;;;;;;27.30;20.77;;;17.40;74.80;;;;;;4180517;28;20178;-61
2023/04/23 02:00:19;;;;;;;27.33;20.08;;;17.40;74.90;;;;;;4175843;28;20486;-59
2023/04/23 02:03:00;;;;;;;28.55;21.10;;;17.40;74.80;;;;;;4176805;28;20079;-60
2023/04/23 02:05:41;;;;;;;27.67;20.85;;;17.40;74.90;;;;;;4183329;28;20117;-60
2023/04/23 02:08:23;;;;;;;27.13;21.00;;;17.40;75.10;;;;;;4192939;28;20044;-60
2023/04/23 02:11:06;;;;;;;26.17;19.75;;;17.40;75.00;;;;;;4191868;28;20079;-60
2023/04/23 02:13:47;;;;;;;27.65;20.23;;;17.40;74.70;;;;;;4185414;28;20183;-60
2023/04/23 02:16:28;;;;;;;25.98;19.52;;;17.40;74.80;;;;;;4191866;28;20051;-60
2023/04/23 02:19:10;;;;;;;24.35;19.58;;;17.40;74.80;;;;;;4192796;28;20055;-61
2023/04/23 02:21:51;;;;;;;24.40;18.77;;;17.40;75.00;;;;;;4192705;28;20059;-60
2023/04/23 02:24:32;;;;;;;27.35;21.00;;;17.40;75.10;;;;;;4191655;28;20086;-60
2023/04/23 02:27:14;;;;;;;24.77;19.10;;;17.40;75.00;;;;;;4191669;28;20063;-60
2023/04/23 02:29:55;;;;;;;26.10;20.63;;;17.40;74.90;;;;;;4190263;28;20047;-60
2023/04/23 02:32:36;;;;;;;24.88;19.83;;;17.40;75.00;;;;;;4192786;28;20058;-60
2023/04/23 02:35:18;;;;;;;24.10;19.70;;;17.30;75.00;;;;;;4192676;28;20051;-61
2023/04/23 02:37:59;;;;;;;25.37;21.07;;;17.30;74.90;;;;;;4182556;28;20055;-60
2023/04/23 02:40:40;;;;;;;26.92;20.30;;;17.30;74.70;;;;;;4192610;28;20055;-60
2023/04/23 02:43:22;;;;;;;;;;;17.30;74.90;;;;;;4193176;28;20131;-59
2023/04/23 02:46:07;;;;;;;27.25;20.55;;;17.30;75.20;;;;;;4191556;28;19961;-60
2023/04/23 02:48:49;;;;;;;27.15;20.60;;;17.30;76.00;;;;;;4174894;28;20056;-60
2023/04/23 02:51:30;;;;;;;28.90;20.80;;;17.30;75.70;;;;;;4187755;28;20055;-60
2023/04/23 02:54:12;;;;;;;28.42;22.23;;;17.30;75.80;;;;;;4192344;28;20055;-60
2023/04/23 02:56:53;;;;;;;25.75;20.25;;;17.20;75.60;;;;;;4192544;28;20055;-60
2023/04/23 02:59:35;;;;;;;27.85;21.17;;;17.20;75.40;;;;;;4190660;28;20047;-60
2023/04/23 03:02:16;;;;;;;27.65;21.17;;;17.20;75.20;;;;;;4190792;28;20056;-59
2023/04/23 03:04:58;;;;;;;27.92;21.10;;;17.20;75.10;;;;;;4190939;28;20097;-60
2023/04/23 03:07:39;;;;;;;26.55;20.45;;;17.20;75.10;;;;;;4190675;28;20059;-60
2023/04/23 03:10:19;;;;;;;26.73;20.07;;;17.20;75.30;;;;;;4190881;28;20052;-60
2023/04/23 03:13:00;;;;;;;25.17;19.45;;;17.20;75.30;;;;;;4191182;28;20345;-60
2023/04/23 03:15:42;;;;;;;23.33;18.75;;;17.20;75.30;;;;;;4191185;28;20106;-60
2023/04/23 03:18:23;;;;;;;28.40;19.15;;;17.20;76.30;;;;;;4191966;28;20552;-60
2023/04/23 03:21:06;;;;;;;25.58;19.08;;;17.20;75.70;;;;;;4178807;28;20490;-60
2023/04/23 03:23:47;;;;;;;25.60;19.25;;;17.20;75.50;;;;;;4192181;28;20059;-60
2023/04/23 03:26:28;;;;;;;25.92;20.30;;;17.10;76.10;;;;;;4189138;28;20117;-60
2023/04/23 03:29:09;;;;;;;28.30;20.30;;;17.10;75.20;;;;;;4192024;28;20053;-60
2023/04/23 03:31:52;;;;;;;;;;;17.10;75.20;;;;;;4191404;28;20190;-60
2023/04/23 03:34:33;;;;;;;26.65;20.45;;;17.10;75.40;;;;;;4174748;28;19979;-60
2023/04/23 03:37:15;;;;;;;27.70;20.90;;;17.10;76.10;;;;;;4175459;28;20052;-60
2023/04/23 03:39:56;;;;;;;26.42;20.58;;;17.10;75.60;;;;;;4174436;28;20060;-60
2023/04/23 03:42:37;;;;;;;28.77;21.08;;;17.10;75.50;;;;;;4163115;28;20380;-60
2023/04/23 03:45:19;;;;;;;29.20;21.45;;;17.10;75.60;;;;;;4174462;28;20066;-60
2023/04/23 03:48:01;;;;;;;28.20;21.23;;;17.10;75.60;;;;;;4175611;28;20056;-60
2023/04/23 03:50:42;;;;;;;29.50;21.90;;;17.00;75.50;;;;;;4174508;28;20870;-60
2023/04/23 03:53:41;;;;;;;31.45;22.77;;;17.00;75.50;;;;;;4174014;28;20079;-60
2023/04/23 03:56:40;;;;;;;31.70;23.13;;;17.00;75.50;;;;;;4183358;28;20097;-60
2023/04/23 03:59:30;;;;;;;35.80;24.13;;;17.00;75.50;;;;;;4175921;28;20118;-60
2023/04/23 04:02:13;;;;;;;33.17;24.15;;;17.00;76.30;;;;;;4174161;28;20187;-61
2023/04/23 04:04:55;;;;;;;35.67;24.63;;;17.00;76.30;;;;;;4175148;28;20052;-60
2023/04/23 04:07:37;;;;;;;33.78;25.45;;;17.00;75.30;;;;;;4174250;28;20052;-60
2023/04/23 04:10:18;;;;;;;34.40;25.63;;;17.00;75.40;;;;;;4175645;28;20439;-61
2023/04/23 04:12:59;;;;;;;37.13;26.38;;;17.00;75.50;;;;;;4187761;28;20545;-60
2023/04/23 04:15:40;;;;;;;35.60;27.13;;;17.00;75.60;;;;;;4193729;28;20054;-60
2023/04/23 04:18:20;;;;;;;38.63;26.55;;;17.00;75.60;;;;;;4193515;28;20101;-60
2023/04/23 04:21:02;;;;;;;40.28;27.30;;;16.90;75.50;;;;;;4194761;28;20047;-60
2023/04/23 04:23:44;;;;;;;39.20;27.27;;;16.90;75.50;;;;;;4194421;28;20066;-60
2023/04/23 04:26:25;;;;;;;40.17;27.52;;;16.90;75.50;;;;;;4194254;28;20060;-60
2023/04/23 04:29:05;;;;;;;43.78;28.33;;;16.90;75.40;;;;;;4192661;28;20502;-60
2023/04/23 04:31:46;;;;;;;40.53;29.33;;;16.90;75.70;;;;;;4194078;28;20071;-60
2023/04/23 04:34:27;;;;;;;38.58;27.42;;;16.90;75.60;;;;;;4194506;28;20071;-59
2023/04/23 04:37:11;;;;;;;42.78;29.98;;;16.90;75.70;;;;;;4193527;28;20051;-60
2023/04/23 04:39:53;;;;;;;45.10;30.25;;;16.90;75.80;;;;;;4194572;28;20091;-60
2023/04/23 04:42:35;;;;;;;43.55;29.88;;;16.90;75.90;;;;;;4194630;28;20051;-59
2023/04/23 04:45:16;;;;;;;42.97;29.98;;;16.90;75.80;;;;;;4192751;28;20498;-60
2023/04/23 04:47:57;;;;;;;44.75;30.10;;;16.80;75.60;;;;;;4194038;28;20114;-60
2023/04/23 04:50:38;;;;;;;44.90;31.95;;;16.80;75.80;;;;;;4194512;28;20052;-60
2023/04/23 04:53:20;;;;;;;47.58;31.70;;;16.80;76.00;;;;;;4194253;28;20047;-60
2023/04/23 04:56:00;;;;;;;46.20;31.50;;;16.80;75.90;;;;;;4194497;28;20518;-60
2023/04/23 04:58:42;;;;;;;44.40;30.48;;;16.80;75.80;;;;;;4194656;28;20081;-59
2023/04/23 05:01:25;;;;;;;48.53;33.88;;;16.80;75.80;;;;;;4190796;28;20129;-60
2023/04/23 05:04:06;;;;;;;51.35;33.83;;;16.80;75.90;;;;;;4177791;28;20056;-60
2023/04/23 05:06:48;;;;;;;48.35;33.10;;;16.80;75.90;;;;;;4177615;28;20187;-59
2023/04/23 05:09:30;;;;;;;51.22;35.83;;;16.80;75.90;;;;;;4177586;28;20404;-60
2023/04/23 05:12:11;;;;;;;49.10;33.80;;;16.80;76.00;;;;;;4177422;28;20060;-60
2023/04/23 05:14:52;;;;;;;51.75;36.08;;;16.80;76.20;;;;;;4177462;28;20063;-60
2023/04/23 05:17:34;;;;;;;51.97;35.78;;;16.80;76.10;;;;;;4186659;28;20052;-60
2023/04/23 05:20:15;;;;;;;48.78;34.35;;;16.80;76.20;;;;;;4193846;28;20102;-60
2023/04/23 05:22:58;;;;;;;49.78;36.08;;;16.80;77.10;;;;;;4177364;28;20160;-60
2023/04/23 05:25:40;;;;;;;52.25;37.42;;;16.80;76.30;;;;;;4177055;28;20052;-60
2023/04/23 05:28:21;;;;;;;51.88;36.00;;;16.80;76.30;;;;;;4177318;28;20099;-60
2023/04/23 05:31:02;;;;;;;52.90;35.75;;;16.70;76.30;;;;;;4189983;28;20056;-60
2023/04/23 05:33:43;;;;;;;60.05;39.78;;;16.70;76.30;;;;;;4177171;28;20052;-59
2023/04/23 05:36:30;;;;;;;53.10;36.63;;;16.70;76.80;;;;;;4177108;28;20052;-60
2023/04/23 05:39:11;;;;;;;58.03;40.78;;;16.70;77.00;;;;;;4176765;28;20079;-60
2023/04/23 05:41:53;;;;;;;57.50;39.63;;;16.70;76.90;;;;;;4188621;28;20060;-60
2023/04/23 05:44:34;;;;;;;60.85;40.38;;;16.70;76.70;;;;;;4193136;28;20074;-59
2023/04/23 05:47:15;;;;;;;59.72;40.03;;;16.70;77.60;;;;;;4191663;28;20054;-59
2023/04/23 05:49:57;;;;;;;60.30;40.42;;;16.80;77.10;;;;;;4193023;28;20058;-60
2023/04/23 05:52:38;;;;;;;56.75;38.28;;;16.80;77.10;;;;;;4192075;28;20051;-60
2023/04/23 05:55:20;;;;;;;59.42;39.60;;;16.80;77.10;;;;;;4192211;28;20060;-60
2023/04/23 05:58:02;;;;;;;;;;;16.80;76.90;;;;;;4193734;28;20055;-59
2023/04/23 06:00:43;;;;;;;57.92;39.38;;;16.80;77.00;;;;;;4191701;28;20013;-60
2023/04/23 06:03:25;;;;;;;61.05;40.05;;;16.80;78.40;;;;;;4192243;28;20060;-60
2023/04/23 06:06:06;;;;;;;60.35;40.03;;;16.70;77.20;;;;;;4192790;28;20432;-60
2023/04/23 06:08:49;;;;;;;58.80;39.88;;;16.70;77.20;;;;;;4192428;28;20063;-58
2023/04/23 06:11:31;;;;;;;64.68;42.08;;;16.70;77.60;;;;;;4192961;28;20063;-59
2023/04/23 06:14:13;;;;;;;58.83;39.13;;;16.70;77.70;;;;;;4192099;28;20063;-60
2023/04/23 06:16:54;;;;;;;62.10;41.70;;;16.70;77.60;;;;;;4190784;28;20540;-59
2023/04/23 06:19:35;;;;;;;64.75;42.83;;;16.70;77.60;;;;;;4192222;28;20505;-59
2023/04/23 06:22:17;;;;;;;60.95;39.72;;;16.70;77.60;;;;;;4176062;28;20152;-59
2023/04/23 06:24:58;;;;;;;61.42;40.70;;;16.70;78.30;;;;;;4176096;28;20052;-61
2023/04/23 06:27:39;;;;;;;64.05;41.75;;;16.70;78.40;;;;;;4175549;28;20568;-60
2023/04/23 06:30:29;;;;;;;62.72;42.70;;;16.70;79.30;;;;;;4176754;28;20407;-59
2023/04/23 06:33:11;;;;;;;64.22;40.25;;;16.70;78.50;;;;;;4190920;28;20051;-60
2023/04/23 06:35:52;;;;;;;59.63;39.35;;;16.70;78.30;;;;;;4175629;28;20055;-59
2023/04/23 06:38:32;;;;;;;61.53;41.13;;;16.70;78.10;;;;;;4176001;28;20048;-62
2023/04/23 06:41:13;;;;;;;58.47;38.40;;;16.70;77.80;;;;;;4175761;28;20134;-60
2023/04/23 06:43:54;;;;;;;61.15;39.58;;;16.70;78.70;;;;;;4176081;28;20514;-59
2023/04/23 06:46:46;;;;;;;57.08;38.97;;;16.70;78.70;;;;;;4177806;28;20733;-59
2023/04/23 06:49:27;;;;;;;57.97;38.78;;;16.70;77.80;;;;;;4190683;28;20186;-60
2023/04/23 06:52:08;;;;;;;58.70;40.08;;;16.80;77.60;;;;;;4191482;28;20517;-59
2023/04/23 06:54:49;;;;;;;58.72;41.00;;;16.80;77.80;;;;;;4192349;28;20051;-60
2023/04/23 06:57:30;;;;;;;57.63;39.33;;;16.80;77.70;;;;;;4191994;28;20067;-59
2023/04/23 07:00:12;;;;;;;55.15;36.90;;;16.90;77.70;;;;;;4191230;28;20047;-59
2023/04/23 07:02:56;;;;;;;56.72;38.35;;;16.90;77.70;;;;;;4181906;28;20051;-60
2023/04/23 07:05:37;;;;;;;55.92;38.80;;;17.00;77.70;;;;;;4192435;28;20055;-59
2023/04/23 07:08:19;;;;;;;57.47;39.95;;;17.00;77.50;;;;;;4192489;28;20055;-59
2023/04/23 07:11:01;;;;;;;55.75;37.30;;;17.10;77.40;;;;;;4191326;28;20137;-59
2023/04/23 07:13:42;;;;;;;53.53;35.08;;;17.10;77.30;;;;;;4191450;28;20055;-59
2023/04/23 07:16:24;;;;;;;51.03;35.45;;;17.10;77.20;;;;;;4177059;28;20561;-59
2023/04/23 07:19:06;;;;;;;49.20;34.90;;;17.20;77.10;;;;;;4174766;28;20055;-59
2023/04/23 07:21:47;;;;;;;48.63;33.70;;;17.20;76.90;;;;;;4179708;28;20515;-59
2023/04/23 07:24:28;;;;;;;49.13;34.80;;;17.20;76.80;;;;;;4191845;28;20055;-59
2023/04/23 07:27:09;;;;;;;48.10;33.70;;;17.30;76.70;;;;;;4179210;28;20071;-59
2023/04/23 07:29:50;;;;;;;46.42;33.55;;;17.30;76.50;;;;;;4184029;28;20063;-59
2023/04/23 07:32:31;;;;;;;47.60;34.58;;;17.30;76.40;;;;;;4192186;28;20048;-60
2023/04/23 07:35:13;;;;;;;46.80;33.30;;;17.30;76.40;;;;;;4191985;28;20105;-57
2023/04/23 07:37:56;;;;;;;43.45;32.58;;;17.40;76.50;;;;;;4189402;28;20380;-56
2023/04/23 07:40:38;;;;;;;42.05;30.48;;;17.40;76.60;;;;;;4174675;28;20098;-57
2023/04/23 07:43:18;;;;;;;43.55;32.50;;;17.40;77.50;;;;;;4182726;28;20039;-58
2023/04/23 07:45:59;;;;;;;45.75;31.20;;;17.40;76.80;;;;;;4189506;28;20052;-56
2023/04/23 07:48:40;;;;;;;44.72;30.23;;;17.40;76.50;;;;;;4195003;28;20429;-58
2023/04/23 07:51:25;;;;;;;44.25;31.40;;;17.40;76.30;;;;;;4195250;28;20051;-56
2023/04/23 07:54:06;;;;;;;39.38;28.88;;;17.40;76.20;;;;;;4194358;28;20043;-58
2023/04/23 07:56:47;;;;;;;41.05;29.58;;;17.40;76.30;;;;;;4195055;28;20122;-57
2023/04/23 07:59:28;;;;;;;40.08;29.73;;;17.50;76.50;;;;;;4195177;28;20060;-58
2023/04/23 08:02:09;;;;;;;40.28;30.58;;;17.50;76.50;;;;;;4194907;28;20407;-58
2023/04/23 08:04:50;;;;;;;39.70;28.40;;;17.50;76.60;;;;;;4195031;28;20047;-57
2023/04/23 08:07:33;;;;;;;38.72;28.50;;;17.50;76.60;;;;;;4194723;28;20517;-58
2023/04/23 08:10:13;;;;;;;38.70;28.83;;;17.50;76.60;;;;;;4195046;28;20546;-57
2023/04/23 08:12:54;;;;;;;38.50;27.80;;;17.50;76.60;;;;;;4194597;28;20044;-57
2023/04/23 08:15:35;;;;;;;38.50;27.27;;;17.50;76.60;;;;;;4194727;28;20087;-58
2023/04/23 08:18:16;;;;;;;36.15;26.23;;;17.50;76.60;;;;;;4195039;28;20056;-56
2023/04/23 08:20:57;;;;;;;34.75;27.02;;;17.60;76.70;;;;;;4179340;28;20055;-57
2023/04/23 08:23:39;;;;;;;35.35;27.30;;;17.60;76.50;;;;;;4176967;28;20198;-57
2023/04/23 08:26:20;;;;;;;34.63;25.08;;;17.60;76.40;;;;;;4177904;28;20114;-59
2023/04/23 08:29:02;;;;;;;32.88;24.88;;;17.60;76.70;;;;;;4177824;28;20122;-57
2023/04/23 08:31:43;;;;;;;32.85;24.05;;;17.70;76.70;;;;;;4179867;28;20048;-59
2023/04/23 08:34:24;;;;;;;33.30;24.80;;;17.70;77.50;;;;;;4190566;28;20051;-59
2023/04/23 08:37:05;;;;;;;33.40;24.80;;;17.80;76.50;;;;;;4192197;28;20182;-59
2023/04/23 08:39:49;;;;;;;33.08;24.02;;;17.80;76.50;;;;;;4194195;28;20055;-59
2023/04/23 08:42:38;;;;;;;33.90;24.92;;;17.80;76.30;;;;;;4194256;28;20047;-59
2023/04/23 08:45:19;;;;;;;32.40;24.70;;;17.90;76.10;;;;;;4184822;28;20051;-59
2023/04/23 08:48:01;;;;;;;34.88;24.75;;;17.90;76.10;;;;;;4177710;28;20052;-59
2023/04/23 08:50:43;;;;;;;29.23;21.98;;;17.90;75.90;;;;;;4192881;28;20044;-59
2023/04/23 08:53:27;;;;;;;27.73;20.33;;;18.00;75.90;;;;;;4176824;28;20150;-59
2023/04/23 08:56:10;;;;;;;31.83;21.20;;;18.00;75.70;;;;;;4177646;28;20595;-59
2023/04/23 08:58:51;;;;;;;30.48;22.65;;;18.00;75.60;;;;;;4177462;28;20056;-59
2023/04/23 09:01:32;;;;;;;28.50;22.03;;;18.10;75.60;;;;;;4176507;28;20044;-59
2023/04/23 09:04:15;;;;;;;;;;;18.10;75.30;;;;;;4179253;28;20059;-59
2023/04/23 09:06:56;;;;;;;27.30;21.00;;;18.10;75.20;;;;;;4193931;28;19935;-59
2023/04/23 09:09:38;;;;;;;25.30;20.98;;;18.10;75.20;;;;;;4194131;28;20375;-59
2023/04/23 09:12:22;;;;;;;24.77;19.35;;;18.10;75.10;;;;;;4193741;28;20186;-59
2023/04/23 09:15:09;;;;;;;23.52;18.80;;;18.10;75.20;;;;;;4193839;28;20044;-60
2023/04/23 09:17:50;;;;;;;23.05;18.02;;;18.10;75.20;;;;;;4194017;28;20050;-65
2023/04/23 09:20:30;;;;;;;28.15;18.23;;;18.20;75.00;;;;;;4192741;28;20101;-59
2023/04/23 09:23:15;;;;;;;26.50;17.88;;;18.20;74.90;;;;;;4186703;28;20059;-65
2023/04/23 09:25:56;;;;;;;24.58;19.13;;;18.20;74.90;;;;;;4193243;28;20048;-65
2023/04/23 09:28:38;;;;;;;;;;;18.20;74.70;;;;;;4177543;28;20494;-60
2023/04/23 09:31:23;;;;;;;;;;;18.20;74.70;;;;;;4178153;28;20005;-60
2023/04/23 09:34:04;;;;;;;21.58;16.88;;;18.30;74.70;;;;;;4184974;28;20067;-65
2023/04/23 09:36:45;;;;;;;22.58;16.52;;;18.30;74.60;;;;;;4191700;28;20093;-65
2023/04/23 09:39:27;;;;;;;22.13;17.30;;;18.30;74.40;;;;;;4193167;28;20051;-65
2023/04/23 09:42:10;;;;;;;22.40;13.85;;;18.30;74.30;;;;;;4193299;28;20183;-65
2023/04/23 09:44:58;;;;;;;19.20;14.05;;;18.30;74.20;;;;;;4192310;28;20081;-65
2023/04/23 09:47:40;;;;;;;16.48;11.63;;;18.30;74.00;;;;;;4192769;28;20407;-65
2023/04/23 09:50:32;;;;;;;17.08;13.20;;;18.20;73.90;;;;;;4192086;28;20048;-63
2023/04/23 09:53:14;;;;;;;17.10;12.05;;;18.20;74.60;;;;;;4192925;28;20527;-60
2023/04/23 09:55:55;;;;;;;;;;;18.20;73.80;;;;;;4192828;28;21861;-64
2023/04/23 09:58:37;;;;;;;13.32;10.65;;;18.30;74.80;;;;;;4193245;28;19931;-61
2023/04/23 10:01:28;;;;;;;16.48;10.75;;;18.30;74.00;;;;;;4192413;28;20044;-60
2023/04/23 10:04:12;;;;;;;16.92;11.18;;;18.30;74.60;;;;;;4192588;28;20055;-60
2023/04/23 10:06:54;;;;;;;15.65;10.63;;;18.30;73.70;;;;;;4192629;28;20063;-59
2023/04/23 10:09:37;;;;;;;14.93;9.80;;;18.40;73.70;;;;;;4189818;28;20482;-59
2023/04/23 10:12:19;;;;;;;15.32;10.45;;;18.40;73.50;;;;;;4192568;28;20059;-59
2023/04/23 10:15:21;;;;;;;16.48;10.57;;;18.50;73.40;;;;;;4176275;28;20446;-60
2023/04/23 10:18:04;;;;;;;13.50;9.13;;;18.50;73.10;;;;;;4181688;28;20499;-60
2023/04/23 10:20:45;;;;;;;15.95;9.70;;;18.60;73.00;;;;;;4191819;28;20459;-60
2023/04/23 10:23:26;;;;;;;17.15;10.10;;;18.60;72.70;;;;;;4193029;28;20067;-60
2023/04/23 10:26:09;;;;;;;14.23;9.90;;;18.60;72.50;;;;;;4192870;28;20051;-60
2023/04/23 10:28:53;;;;;;;14.32;9.35;;;18.60;72.30;;;;;;4176602;28;20102;-60
2023/04/23 10:31:35;;;;;;;12.68;9.07;;;18.60;72.10;;;;;;4185273;28;20123;-59
2023/04/23 10:34:18;;;;;;;12.13;8.35;;;18.70;72.00;;;;;;4191674;28;20107;-60
2023/04/23 10:37:00;;;;;;;11.55;8.38;;;18.60;71.80;;;;;;4192037;28;20411;-59
2023/04/23 10:39:44;;;;;;;11.95;9.25;;;18.60;71.70;;;;;;4190610;28;20048;-63
2023/04/23 10:42:26;;;;;;;13.00;8.90;;;18.60;71.60;;;;;;4179716;28;20055;-63
2023/04/23 10:45:14;;;;;;;11.35;7.68;;;18.70;71.80;;;;;;4175676;28;20070;-63
2023/04/23 10:48:04;;;;;;;12.55;7.65;;;18.60;71.90;;;;;;4174948;28;20051;-64
2023/04/23 10:50:47;;;;;;;10.10;6.00;;;18.70;72.30;;;;;;4171835;28;20133;-59
2023/04/23 10:53:48;;;;;;;7.38;5.82;;;18.60;72.30;;;;;;4169567;28;20091;-59
2023/04/23 10:56:32;;;;;;;8.70;4.88;;;18.70;72.50;;;;;;4182816;28;20071;-63
2023/04/23 10:59:19;;;;;;;9.55;5.55;;;18.70;72.60;;;;;;4191876;28;20047;-62
2023/04/23 11:02:07;;;;;;;9.13;5.22;;;18.70;72.30;;;;;;4192363;28;20051;-62
2023/04/23 11:04:55;;;;;;;6.25;4.53;;;18.60;72.00;;;;;;4175594;28;20059;-62
2023/04/23 11:07:38;;;;;;;9.10;4.85;;;18.70;72.10;;;;;;4175819;28;20055;-62
2023/04/23 11:10:20;;;;;;;10.52;4.78;;;18.70;72.30;;;;;;4175591;28;20056;-62
2023/04/23 11:13:25;;;;;;;7.15;4.35;;;18.60;72.20;;;;;;4176402;28;20051;-62
2023/04/23 11:16:14;;;;;;;10.07;4.40;;;18.60;71.40;;;;;;4174661;28;20052;-66
2023/04/23 11:19:02;;;;;;;7.30;3.80;;;18.70;72.20;;;;;;4175435;28;20060;-62
2023/04/23 11:22:03;;;;;;;7.43;3.42;;;18.70;72.50;;;;;;4180756;28;20052;-62
2023/04/23 11:24:45;;;;;;;9.95;3.63;;;18.70;72.00;;;;;;4180442;28;20126;-62
2023/04/23 11:27:30;;;;;;;5.93;3.05;;;18.70;72.60;;;;;;4180583;28;20549;-62
2023/04/23 11:30:13;;;;;;;8.82;4.20;;;18.80;72.30;;;;;;4181891;28;20079;-62
2023/04/23 11:32:56;;;;;;;7.38;3.72;;;18.80;71.70;;;;;;4179426;28;20064;-62
2023/04/23 11:35:39;;;;;;;6.07;2.97;;;18.80;71.60;;;;;;4180637;28;20055;-62
2023/04/23 11:38:21;;;;;;;7.43;3.40;;;18.80;71.60;;;;;;4180761;28;20487;-63
2023/04/23 11:41:04;;;;;;;5.30;2.80;;;18.80;71.30;;;;;;4180543;28;20055;-63
2023/04/23 11:43:45;;;;;;;4.43;2.13;;;18.90;71.00;;;;;;4180530;28;20072;-62
2023/04/23 11:46:26;;;;;;;5.88;2.30;;;18.80;70.90;;;;;;4181873;28;20124;-63
2023/04/23 11:49:09;;;;;;;7.55;2.78;;;18.90;70.60;;;;;;4180546;28;20047;-63
2023/04/23 11:51:50;;;;;;;5.47;2.50;;;18.90;70.60;;;;;;4180604;28;20819;-62
2023/04/23 11:54:32;;;;;;;6.15;3.10;;;18.90;70.60;;;;;;4180576;28;20051;-63
2023/04/23 11:57:14;;;;;;;7.05;2.55;;;18.90;70.60;;;;;;4190502;28;20051;-63
2023/04/23 11:59:55;;;;;;;4.75;2.50;;;19.00;70.50;;;;;;4196938;28;20066;-64
2023/04/23 12:02:36;;;;;;;2.42;1.95;;;19.00;70.20;;;;;;4196946;28;20048;-63
2023/04/23 12:05:20;;;;;;;5.40;2.45;;;19.00;70.00;;;;;;4197305;28;20097;-63
2023/04/23 12:08:08;;;;;;;5.35;2.30;;;19.00;69.70;;;;;;4195634;28;20506;-62
2023/04/23 12:10:50;;;;;;;6.90;2.78;;;19.10;68.50;;;;;;4189752;28;20063;-66
2023/04/23 12:13:33;;;;;;;3.13;2.10;;;19.10;68.80;;;;;;4180200;28;20052;-64
2023/04/23 12:16:14;;;;;;;3.08;1.90;;;19.10;68.70;;;;;;4180607;28;20101;-62
2023/04/23 12:18:55;;;;;;;5.85;2.58;;;19.10;68.20;;;;;;4184963;28;20059;-62
2023/04/23 12:21:47;;;;;;;3.53;1.53;;;19.20;68.70;;;;;;4196994;28;20051;-62
2023/04/23 12:24:30;;;;;;;5.50;2.33;;;19.20;67.80;;;;;;4196710;28;20645;-62
2023/04/23 12:27:15;;;;;;;6.18;2.33;;;19.20;68.30;;;;;;4195001;28;20047;-62
2023/04/23 12:30:01;;;;;;;6.35;1.73;;;19.20;67.70;;;;;;4196619;28;20056;-62
2023/04/23 12:32:43;;;;;;;4.03;2.00;;;19.20;67.20;;;;;;4193614;28;20047;-62
2023/04/23 12:35:37;;;;;;;4.72;1.80;;;19.30;67.40;;;;;;4194475;28;20055;-62
2023/04/23 12:38:23;;;;;;;3.70;1.67;;;19.20;66.30;;;;;;4179506;28;20060;-60
2023/04/23 12:41:03;;;;;;;4.05;2.08;;;19.20;67.10;;;;;;4177463;28;20055;-62
2023/04/23 12:43:47;;;;;;;4.15;2.17;;;19.30;67.50;;;;;;4180756;28;20060;-61
2023/04/23 12:46:30;;;;;;;3.50;1.67;;;19.30;67.50;;;;;;4193967;28;20055;-62
2023/04/23 12:49:11;;;;;;;4.78;1.80;;;19.30;67.40;;;;;;4193769;28;20187;-60
2023/04/23 12:51:56;;;;;;;8.52;2.40;;;19.30;67.20;;;;;;4193863;28;20056;-61
2023/04/23 12:54:39;;;;;;;3.22;2.13;;;19.20;67.20;;;;;;4192729;28;20043;-62
2023/04/23 12:57:21;;;;;;;4.43;1.80;;;19.30;67.30;;;;;;4193316;28;20056;-62
2023/04/23 13:00:03;;;;;;;4.05;2.28;;;19.20;67.20;;;;;;4177356;28;20107;-62
2023/04/23 13:02:45;;;;;;;3.13;1.50;;;19.20;66.90;;;;;;4177472;28;20503;-62
2023/04/23 13:05:27;;;;;;;2.92;1.52;;;19.20;67.00;;;;;;4177257;28;20068;-62
2023/04/23 13:08:08;;;;;;;6.18;1.67;;;19.30;68.00;;;;;;4177265;28;20611;-60
2023/04/23 13:10:49;;;;;;;3.63;1.95;;;19.30;66.80;;;;;;4177141;28;20510;-60
2023/04/23 13:13:30;;;;;;;4.53;1.88;;;19.20;67.00;;;;;;4175882;28;20056;-61
2023/04/23 13:16:11;;;;;;;4.13;1.63;;;19.20;67.00;;;;;;4177198;28;20052;-62
2023/04/23 13:18:54;;;;;;;7.20;1.95;;;19.30;67.10;;;;;;4177249;28;20060;-61
2023/04/23 13:21:35;;;;;;;4.63;1.98;;;19.20;67.00;;;;;;4176932;28;20167;-61
2023/04/23 13:24:16;;;;;;;4.78;1.80;;;19.20;67.10;;;;;;4176852;28;20499;-62
2023/04/23 13:26:57;;;;;;;3.88;1.75;;;19.20;68.00;;;;;;4189331;28;20046;-61
2023/04/23 13:29:39;;;;;;;5.72;1.92;;;19.20;67.30;;;;;;4193288;28;20125;-62
2023/04/23 13:32:20;;;;;;;3.85;1.90;;;19.20;67.20;;;;;;4193406;28;20066;-62
2023/04/23 13:35:04;;;;;;;5.70;1.65;;;19.20;67.00;;;;;;4193190;28;20055;-61
2023/04/23 13:37:45;;;;;;;5.57;1.90;;;19.20;66.80;;;;;;4193039;28;20098;-61
2023/04/23 13:40:25;;;;;;;5.65;2.35;;;19.20;67.10;;;;;;4185259;28;20178;-61
2023/04/23 13:43:06;;;;;;;4.78;1.83;;;19.20;67.30;;;;;;4175889;28;20506;-61
2023/04/23 13:45:47;;;;;;;1.65;1.55;;;19.20;67.30;;;;;;4176556;28;20562;-62
2023/04/23 13:48:30;;;;;;;3.70;1.77;;;19.20;67.10;;;;;;4176358;28;20053;-62
2023/04/23 13:51:12;;;;;;;6.93;2.30;;;19.20;67.20;;;;;;4176527;28;20491;-62
2023/04/23 13:54:12;;;;;;;5.53;1.50;;;19.20;67.10;;;;;;4181373;28;20117;-62